sensor_id;sensor_type;location;lat;lon;timestamp;P1;durP1;ratioP1;P2;durP2;ratioP2
52208;SDS011;38507;53.132;6.394;2023-08-31T00:02:13;4.28;;;2.33;;
52208;SDS011;38507;53.132;6.394;2023-08-31T00:04:39;7.35;;;2.40;;
52208;SDS011;38507;53.132;6.394;2023-08-31T00:07:05;7.22;;;2.80;;
52208;SDS011;38507;53.132;6.394;2023-08-31T00:09:31;4.55;;;2.33;;
52208;SDS011;38507;53.132;6.394;2023-08-31T00:11:57;3.65;;;2.22;;
52208;SDS011;38507;53.132;6.394;2023-08-31T00:14:24;6.80;;;2.25;;
52208;SDS011;38507;53.132;6.394;2023-08-31T00:16:51;4.93;;;2.50;;
52208;SDS011;38507;53.132;6.394;2023-08-31T00:19:17;4.43;;;2.10;;
52208;SDS011;38507;53.132;6.394;2023-08-31T00:21:43;6.63;;;3.03;;
52208;SDS011;38507;53.132;6.394;2023-08-31T00:24:08;6.68;;;2.30;;
52208;SDS011;38507;53.132;6.394;2023-08-31T00:26:38;4.47;;;2.08;;
52208;SDS011;38507;53.132;6.394;2023-08-31T00:29:08;5.15;;;2.00;;
52208;SDS011;38507;53.132;6.394;2023-08-31T00:31:35;4.82;;;2.10;;
52208;SDS011;38507;53.132;6.394;2023-08-31T00:34:02;6.20;;;2.00;;
52208;SDS011;38507;53.132;6.394;2023-08-31T00:36:29;8.60;;;2.33;;
52208;SDS011;38507;53.132;6.394;2023-08-31T00:38:58;7.25;;;2.00;;
52208;SDS011;38507;53.132;6.394;2023-08-31T00:41:28;4.38;;;1.70;;
52208;SDS011;38507;53.132;6.394;2023-08-31T00:43:53;7.13;;;1.60;;
52208;SDS011;38507;53.132;6.394;2023-08-31T00:46:19;4.55;;;1.60;;
52208;SDS011;38507;53.132;6.394;2023-08-31T00:48:45;6.00;;;1.45;;
52208;SDS011;38507;53.132;6.394;2023-08-31T00:51:10;4.40;;;1.30;;
52208;SDS011;38507;53.132;6.394;2023-08-31T00:53:36;5.35;;;1.40;;
52208;SDS011;38507;53.132;6.394;2023-08-31T00:56:02;5.80;;;1.33;;
52208;SDS011;38507;53.132;6.394;2023-08-31T00:58:28;7.40;;;1.33;;
52208;SDS011;38507;53.132;6.394;2023-08-31T01:14:11;2.22;;;0.90;;
52208;SDS011;38507;53.132;6.394;2023-08-31T01:16:41;3.00;;;0.80;;
52208;SDS011;38507;53.132;6.394;2023-08-31T01:19:57;2.92;;;0.80;;
52208;SDS011;38507;53.132;6.394;2023-08-31T01:22:05;3.58;;;0.90;;
52208;SDS011;38507;53.132;6.394;2023-08-31T01:24:34;1.65;;;0.70;;
52208;SDS011;38507;53.132;6.394;2023-08-31T01:27:01;2.95;;;0.77;;
52208;SDS011;38507;53.132;6.394;2023-08-31T01:29:29;4.13;;;0.98;;
52208;SDS011;38507;53.132;6.394;2023-08-31T01:31:55;4.40;;;1.38;;
52208;SDS011;38507;53.132;6.394;2023-08-31T01:34:21;5.00;;;0.88;;
52208;SDS011;38507;53.132;6.394;2023-08-31T01:36:47;3.92;;;0.90;;
52208;SDS011;38507;53.132;6.394;2023-08-31T01:39:26;3.38;;;1.15;;
52208;SDS011;38507;53.132;6.394;2023-08-31T01:42:00;3.70;;;1.10;;
52208;SDS011;38507;53.132;6.394;2023-08-31T01:44:30;2.78;;;1.13;;
52208;SDS011;38507;53.132;6.394;2023-08-31T01:47:02;3.92;;;0.95;;
52208;SDS011;38507;53.132;6.394;2023-08-31T01:49:40;3.53;;;1.20;;
52208;SDS011;38507;53.132;6.394;2023-08-31T01:52:06;3.80;;;1.20;;
52208;SDS011;38507;53.132;6.394;2023-08-31T01:54:32;3.63;;;1.08;;
52208;SDS011;38507;53.132;6.394;2023-08-31T01:56:58;4.18;;;1.00;;
52208;SDS011;38507;53.132;6.394;2023-08-31T01:59:24;1.80;;;0.80;;
52208;SDS011;38507;53.132;6.394;2023-08-31T02:01:50;2.67;;;1.10;;
52208;SDS011;38507;53.132;6.394;2023-08-31T02:04:16;5.88;;;1.00;;
52208;SDS011;38507;53.132;6.394;2023-08-31T02:06:42;3.35;;;0.80;;
52208;SDS011;38507;53.132;6.394;2023-08-31T02:09:08;2.65;;;0.85;;
52208;SDS011;38507;53.132;6.394;2023-08-31T02:11:33;7.15;;;1.10;;
52208;SDS011;38507;53.132;6.394;2023-08-31T02:14:03;3.20;;;1.02;;
52208;SDS011;38507;53.132;6.394;2023-08-31T02:16:29;5.65;;;1.15;;
52208;SDS011;38507;53.132;6.394;2023-08-31T02:18:55;2.08;;;0.70;;
52208;SDS011;38507;53.132;6.394;2023-08-31T02:21:21;2.95;;;1.20;;
52208;SDS011;38507;53.132;6.394;2023-08-31T02:23:47;5.80;;;1.02;;
52208;SDS011;38507;53.132;6.394;2023-08-31T02:26:13;4.03;;;1.17;;
52208;SDS011;38507;53.132;6.394;2023-08-31T02:28:39;4.22;;;1.05;;
52208;SDS011;38507;53.132;6.394;2023-08-31T02:31:05;5.38;;;1.00;;
52208;SDS011;38507;53.132;6.394;2023-08-31T02:33:30;4.28;;;1.65;;
52208;SDS011;38507;53.132;6.394;2023-08-31T02:35:56;3.17;;;1.10;;
52208;SDS011;38507;53.132;6.394;2023-08-31T02:38:22;3.67;;;0.90;;
52208;SDS011;38507;53.132;6.394;2023-08-31T02:40:48;5.85;;;0.80;;
52208;SDS011;38507;53.132;6.394;2023-08-31T02:43:14;3.60;;;1.00;;
52208;SDS011;38507;53.132;6.394;2023-08-31T02:45:40;3.38;;;0.80;;
52208;SDS011;38507;53.132;6.394;2023-08-31T02:48:06;3.17;;;0.82;;
52208;SDS011;38507;53.132;6.394;2023-08-31T02:50:34;3.40;;;1.00;;
52208;SDS011;38507;53.132;6.394;2023-08-31T02:53:00;3.47;;;1.00;;
52208;SDS011;38507;53.132;6.394;2023-08-31T02:55:26;3.65;;;0.80;;
52208;SDS011;38507;53.132;6.394;2023-08-31T02:57:51;5.60;;;1.15;;
52208;SDS011;38507;53.132;6.394;2023-08-31T03:00:18;2.13;;;0.73;;
52208;SDS011;38507;53.132;6.394;2023-08-31T03:02:46;2.97;;;0.75;;
52208;SDS011;38507;53.132;6.394;2023-08-31T03:05:13;2.15;;;0.70;;
52208;SDS011;38507;53.132;6.394;2023-08-31T03:07:39;4.28;;;0.88;;
52208;SDS011;38507;53.132;6.394;2023-08-31T03:10:04;2.67;;;0.85;;
52208;SDS011;38507;53.132;6.394;2023-08-31T03:12:30;5.22;;;1.00;;
52208;SDS011;38507;53.132;6.394;2023-08-31T03:14:56;2.13;;;0.65;;
52208;SDS011;38507;53.132;6.394;2023-08-31T03:17:22;5.10;;;0.73;;
52208;SDS011;38507;53.132;6.394;2023-08-31T03:19:48;3.95;;;0.80;;
52208;SDS011;38507;53.132;6.394;2023-08-31T03:22:14;5.05;;;1.00;;
52208;SDS011;38507;53.132;6.394;2023-08-31T03:24:39;3.25;;;0.80;;
52208;SDS011;38507;53.132;6.394;2023-08-31T03:27:05;5.03;;;0.90;;
52208;SDS011;38507;53.132;6.394;2023-08-31T03:29:31;4.60;;;1.00;;
52208;SDS011;38507;53.132;6.394;2023-08-31T03:31:57;3.08;;;0.90;;
52208;SDS011;38507;53.132;6.394;2023-08-31T03:34:28;5.15;;;1.10;;
52208;SDS011;38507;53.132;6.394;2023-08-31T03:36:54;4.63;;;0.95;;
52208;SDS011;38507;53.132;6.394;2023-08-31T03:39:20;3.63;;;1.00;;
52208;SDS011;38507;53.132;6.394;2023-08-31T03:41:45;3.90;;;0.80;;
52208;SDS011;38507;53.132;6.394;2023-08-31T03:44:11;3.03;;;0.90;;
52208;SDS011;38507;53.132;6.394;2023-08-31T03:46:36;2.97;;;0.90;;
52208;SDS011;38507;53.132;6.394;2023-08-31T03:49:02;3.45;;;0.95;;
52208;SDS011;38507;53.132;6.394;2023-08-31T03:51:28;3.22;;;1.10;;
52208;SDS011;38507;53.132;6.394;2023-08-31T03:53:54;5.68;;;1.10;;
52208;SDS011;38507;53.132;6.394;2023-08-31T03:56:21;6.55;;;1.25;;
52208;SDS011;38507;53.132;6.394;2023-08-31T03:58:47;3.83;;;1.50;;
52208;SDS011;38507;53.132;6.394;2023-08-31T04:01:13;5.53;;;1.05;;
52208;SDS011;38507;53.132;6.394;2023-08-31T04:03:39;2.17;;;1.02;;
52208;SDS011;38507;53.132;6.394;2023-08-31T04:06:07;4.18;;;1.27;;
52208;SDS011;38507;53.132;6.394;2023-08-31T04:08:33;5.28;;;1.23;;
52208;SDS011;38507;53.132;6.394;2023-08-31T04:10:58;4.60;;;1.23;;
52208;SDS011;38507;53.132;6.394;2023-08-31T04:13:24;2.65;;;1.00;;
52208;SDS011;38507;53.132;6.394;2023-08-31T04:15:49;5.65;;;1.58;;
52208;SDS011;38507;53.132;6.394;2023-08-31T04:18:16;5.55;;;1.30;;
52208;SDS011;38507;53.132;6.394;2023-08-31T04:20:48;2.00;;;1.20;;
52208;SDS011;38507;53.132;6.394;2023-08-31T04:23:16;6.80;;;1.80;;
52208;SDS011;38507;53.132;6.394;2023-08-31T04:25:42;5.95;;;1.20;;
52208;SDS011;38507;53.132;6.394;2023-08-31T04:28:08;4.40;;;1.65;;
52208;SDS011;38507;53.132;6.394;2023-08-31T04:30:33;3.15;;;1.27;;
52208;SDS011;38507;53.132;6.394;2023-08-31T04:32:59;2.75;;;1.40;;
52208;SDS011;38507;53.132;6.394;2023-08-31T04:35:25;7.55;;;1.50;;
52208;SDS011;38507;53.132;6.394;2023-08-31T04:37:50;3.53;;;1.55;;
52208;SDS011;38507;53.132;6.394;2023-08-31T04:40:16;4.07;;;1.60;;
52208;SDS011;38507;53.132;6.394;2023-08-31T04:42:42;4.32;;;1.67;;
52208;SDS011;38507;53.132;6.394;2023-08-31T04:45:08;5.82;;;2.00;;
52208;SDS011;38507;53.132;6.394;2023-08-31T04:47:35;6.32;;;2.08;;
52208;SDS011;38507;53.132;6.394;2023-08-31T04:50:01;6.78;;;2.40;;
52208;SDS011;38507;53.132;6.394;2023-08-31T04:52:28;5.22;;;2.15;;
52208;SDS011;38507;53.132;6.394;2023-08-31T04:54:53;6.40;;;2.47;;
52208;SDS011;38507;53.132;6.394;2023-08-31T04:57:19;5.22;;;2.17;;
52208;SDS011;38507;53.132;6.394;2023-08-31T04:59:44;6.15;;;2.00;;
52208;SDS011;38507;53.132;6.394;2023-08-31T05:02:10;5.80;;;2.35;;
52208;SDS011;38507;53.132;6.394;2023-08-31T05:04:36;7.60;;;2.60;;
52208;SDS011;38507;53.132;6.394;2023-08-31T05:07:01;5.80;;;2.40;;
52208;SDS011;38507;53.132;6.394;2023-08-31T05:09:28;4.60;;;1.95;;
52208;SDS011;38507;53.132;6.394;2023-08-31T05:11:57;8.88;;;2.38;;
52208;SDS011;38507;53.132;6.394;2023-08-31T05:14:23;8.23;;;2.70;;
52208;SDS011;38507;53.132;6.394;2023-08-31T05:16:50;6.30;;;2.30;;
52208;SDS011;38507;53.132;6.394;2023-08-31T05:19:15;3.85;;;2.00;;
52208;SDS011;38507;53.132;6.394;2023-08-31T05:21:41;6.07;;;2.40;;
52208;SDS011;38507;53.132;6.394;2023-08-31T05:24:06;4.68;;;2.40;;
52208;SDS011;38507;53.132;6.394;2023-08-31T05:26:32;5.65;;;2.03;;
52208;SDS011;38507;53.132;6.394;2023-08-31T05:28:58;4.07;;;2.00;;
52208;SDS011;38507;53.132;6.394;2023-08-31T05:31:24;7.65;;;1.90;;
52208;SDS011;38507;53.132;6.394;2023-08-31T05:33:49;7.90;;;2.08;;
52208;SDS011;38507;53.132;6.394;2023-08-31T05:36:15;9.52;;;2.40;;
52208;SDS011;38507;53.132;6.394;2023-08-31T05:38:41;7.85;;;1.95;;
52208;SDS011;38507;53.132;6.394;2023-08-31T05:41:07;6.10;;;2.00;;
52208;SDS011;38507;53.132;6.394;2023-08-31T05:43:33;7.10;;;2.08;;
52208;SDS011;38507;53.132;6.394;2023-08-31T05:46:00;4.28;;;1.70;;
52208;SDS011;38507;53.132;6.394;2023-08-31T05:48:26;7.28;;;2.05;;
52208;SDS011;38507;53.132;6.394;2023-08-31T05:50:51;5.40;;;1.92;;
52208;SDS011;38507;53.132;6.394;2023-08-31T05:53:17;8.25;;;1.80;;
52208;SDS011;38507;53.132;6.394;2023-08-31T05:55:42;8.85;;;1.90;;
52208;SDS011;38507;53.132;6.394;2023-08-31T05:58:08;8.43;;;1.90;;
52208;SDS011;38507;53.132;6.394;2023-08-31T06:00:34;6.00;;;2.03;;
52208;SDS011;38507;53.132;6.394;2023-08-31T06:03:00;8.68;;;1.80;;
52208;SDS011;38507;53.132;6.394;2023-08-31T06:05:28;8.75;;;2.22;;
52208;SDS011;38507;53.132;6.394;2023-08-31T06:07:56;9.07;;;2.08;;
52208;SDS011;38507;53.132;6.394;2023-08-31T06:10:22;11.57;;;2.67;;
52208;SDS011;38507;53.132;6.394;2023-08-31T06:12:49;7.88;;;1.83;;
52208;SDS011;38507;53.132;6.394;2023-08-31T06:15:15;12.35;;;2.95;;
52208;SDS011;38507;53.132;6.394;2023-08-31T06:17:41;5.20;;;2.25;;
52208;SDS011;38507;53.132;6.394;2023-08-31T06:20:07;7.47;;;2.30;;
52208;SDS011;38507;53.132;6.394;2023-08-31T06:22:33;7.05;;;2.45;;
52208;SDS011;38507;53.132;6.394;2023-08-31T06:24:59;6.70;;;2.95;;
52208;SDS011;38507;53.132;6.394;2023-08-31T06:27:25;7.18;;;2.40;;
52208;SDS011;38507;53.132;6.394;2023-08-31T06:29:51;6.45;;;2.15;;
52208;SDS011;38507;53.132;6.394;2023-08-31T06:32:17;9.38;;;2.33;;
52208;SDS011;38507;53.132;6.394;2023-08-31T06:34:43;8.68;;;2.35;;
52208;SDS011;38507;53.132;6.394;2023-08-31T06:37:09;6.78;;;2.10;;
52208;SDS011;38507;53.132;6.394;2023-08-31T06:39:35;7.15;;;2.65;;
52208;SDS011;38507;53.132;6.394;2023-08-31T06:42:01;10.05;;;2.25;;
52208;SDS011;38507;53.132;6.394;2023-08-31T06:44:28;4.75;;;1.77;;
52208;SDS011;38507;53.132;6.394;2023-08-31T06:46:55;7.95;;;1.95;;
52208;SDS011;38507;53.132;6.394;2023-08-31T06:49:21;7.18;;;2.20;;
52208;SDS011;38507;53.132;6.394;2023-08-31T06:51:48;5.85;;;1.70;;
52208;SDS011;38507;53.132;6.394;2023-08-31T06:54:14;8.77;;;2.00;;
52208;SDS011;38507;53.132;6.394;2023-08-31T06:56:39;8.25;;;2.03;;
52208;SDS011;38507;53.132;6.394;2023-08-31T06:59:05;4.85;;;1.95;;
52208;SDS011;38507;53.132;6.394;2023-08-31T07:01:31;5.38;;;1.73;;
52208;SDS011;38507;53.132;6.394;2023-08-31T07:03:58;10.57;;;1.80;;
52208;SDS011;38507;53.132;6.394;2023-08-31T07:06:23;7.45;;;2.00;;
52208;SDS011;38507;53.132;6.394;2023-08-31T07:08:49;6.15;;;1.73;;
52208;SDS011;38507;53.132;6.394;2023-08-31T07:11:16;6.88;;;1.50;;
52208;SDS011;38507;53.132;6.394;2023-08-31T07:13:42;8.30;;;1.85;;
52208;SDS011;38507;53.132;6.394;2023-08-31T07:16:08;5.32;;;1.50;;
52208;SDS011;38507;53.132;6.394;2023-08-31T07:18:34;3.95;;;1.58;;
52208;SDS011;38507;53.132;6.394;2023-08-31T07:21:01;6.78;;;1.45;;
52208;SDS011;38507;53.132;6.394;2023-08-31T07:23:29;8.38;;;1.50;;
52208;SDS011;38507;53.132;6.394;2023-08-31T07:25:58;5.70;;;1.58;;
52208;SDS011;38507;53.132;6.394;2023-08-31T07:28:25;5.85;;;1.42;;
52208;SDS011;38507;53.132;6.394;2023-08-31T07:31:03;2.45;;;0.80;;
52208;SDS011;38507;53.132;6.394;2023-08-31T07:33:33;7.78;;;1.33;;
52208;SDS011;38507;53.132;6.394;2023-08-31T07:36:02;6.15;;;1.15;;
52208;SDS011;38507;53.132;6.394;2023-08-31T07:38:29;4.10;;;0.80;;
52208;SDS011;38507;53.132;6.394;2023-08-31T07:40:56;9.00;;;1.10;;
52208;SDS011;38507;53.132;6.394;2023-08-31T07:43:21;3.30;;;1.00;;
52208;SDS011;38507;53.132;6.394;2023-08-31T07:45:47;7.63;;;1.10;;
52208;SDS011;38507;53.132;6.394;2023-08-31T07:48:14;5.05;;;0.93;;
52208;SDS011;38507;53.132;6.394;2023-08-31T07:50:41;12.07;;;1.30;;
52208;SDS011;38507;53.132;6.394;2023-08-31T07:53:07;5.40;;;1.05;;
52208;SDS011;38507;53.132;6.394;2023-08-31T07:55:33;4.32;;;0.90;;
52208;SDS011;38507;53.132;6.394;2023-08-31T07:57:59;6.82;;;1.10;;
52208;SDS011;38507;53.132;6.394;2023-08-31T08:00:26;4.15;;;0.90;;
52208;SDS011;38507;53.132;6.394;2023-08-31T08:02:51;4.20;;;1.05;;
52208;SDS011;38507;53.132;6.394;2023-08-31T08:05:17;4.80;;;1.05;;
52208;SDS011;38507;53.132;6.394;2023-08-31T08:07:43;6.45;;;0.75;;
52208;SDS011;38507;53.132;6.394;2023-08-31T08:10:09;5.82;;;0.77;;
52208;SDS011;38507;53.132;6.394;2023-08-31T08:12:37;4.13;;;0.80;;
52208;SDS011;38507;53.132;6.394;2023-08-31T08:15:04;7.47;;;0.95;;
52208;SDS011;38507;53.132;6.394;2023-08-31T08:17:30;5.95;;;1.02;;
52208;SDS011;38507;53.132;6.394;2023-08-31T08:19:56;4.57;;;1.00;;
52208;SDS011;38507;53.132;6.394;2023-08-31T08:22:22;3.92;;;0.90;;
52208;SDS011;38507;53.132;6.394;2023-08-31T08:24:49;3.70;;;0.77;;
52208;SDS011;38507;53.132;6.394;2023-08-31T08:27:14;5.70;;;0.70;;
52208;SDS011;38507;53.132;6.394;2023-08-31T08:29:41;3.53;;;0.70;;
52208;SDS011;38507;53.132;6.394;2023-08-31T08:32:07;3.05;;;0.60;;
52208;SDS011;38507;53.132;6.394;2023-08-31T08:34:33;4.38;;;0.73;;
52208;SDS011;38507;53.132;6.394;2023-08-31T08:36:59;4.70;;;0.77;;
52208;SDS011;38507;53.132;6.394;2023-08-31T08:39:25;3.15;;;0.65;;
52208;SDS011;38507;53.132;6.394;2023-08-31T08:41:51;4.25;;;0.60;;
52208;SDS011;38507;53.132;6.394;2023-08-31T08:44:19;2.40;;;1.02;;
52208;SDS011;38507;53.132;6.394;2023-08-31T08:46:49;3.30;;;0.60;;
52208;SDS011;38507;53.132;6.394;2023-08-31T08:49:16;5.20;;;0.50;;
52208;SDS011;38507;53.132;6.394;2023-08-31T08:51:43;2.72;;;0.60;;
52208;SDS011;38507;53.132;6.394;2023-08-31T08:54:09;4.55;;;0.80;;
52208;SDS011;38507;53.132;6.394;2023-08-31T08:56:34;1.83;;;0.45;;
52208;SDS011;38507;53.132;6.394;2023-08-31T08:59:00;2.78;;;0.40;;
52208;SDS011;38507;53.132;6.394;2023-08-31T09:01:25;0.68;;;0.28;;
52208;SDS011;38507;53.132;6.394;2023-08-31T09:03:52;6.38;;;0.50;;
52208;SDS011;38507;53.132;6.394;2023-08-31T09:06:17;2.05;;;0.43;;
52208;SDS011;38507;53.132;6.394;2023-08-31T09:08:52;2.65;;;0.50;;
52208;SDS011;38507;53.132;6.394;2023-08-31T09:11:21;1.98;;;0.40;;
52208;SDS011;38507;53.132;6.394;2023-08-31T09:13:47;2.28;;;0.43;;
52208;SDS011;38507;53.132;6.394;2023-08-31T09:16:23;3.72;;;0.55;;
52208;SDS011;38507;53.132;6.394;2023-08-31T09:18:49;2.83;;;0.60;;
52208;SDS011;38507;53.132;6.394;2023-08-31T09:21:14;7.07;;;0.90;;
52208;SDS011;38507;53.132;6.394;2023-08-31T09:23:40;6.22;;;0.70;;
52208;SDS011;38507;53.132;6.394;2023-08-31T09:26:06;2.55;;;0.60;;
52208;SDS011;38507;53.132;6.394;2023-08-31T09:28:32;5.43;;;0.63;;
52208;SDS011;38507;53.132;6.394;2023-08-31T09:31:04;6.50;;;1.02;;
52208;SDS011;38507;53.132;6.394;2023-08-31T09:33:31;5.53;;;0.70;;
52208;SDS011;38507;53.132;6.394;2023-08-31T09:35:59;5.85;;;1.13;;
52208;SDS011;38507;53.132;6.394;2023-08-31T09:38:26;8.85;;;0.80;;
52208;SDS011;38507;53.132;6.394;2023-08-31T09:40:52;4.43;;;1.20;;
52208;SDS011;38507;53.132;6.394;2023-08-31T09:43:31;4.78;;;1.00;;
52208;SDS011;38507;53.132;6.394;2023-08-31T09:45:57;8.18;;;1.50;;
52208;SDS011;38507;53.132;6.394;2023-08-31T09:48:24;2.53;;;0.60;;
52208;SDS011;38507;53.132;6.394;2023-08-31T09:50:52;1.27;;;0.43;;
52208;SDS011;38507;53.132;6.394;2023-08-31T09:53:19;1.77;;;0.50;;
52208;SDS011;38507;53.132;6.394;2023-08-31T09:55:46;3.40;;;0.68;;
52208;SDS011;38507;53.132;6.394;2023-08-31T09:58:17;3.38;;;0.60;;
52208;SDS011;38507;53.132;6.394;2023-08-31T10:00:45;2.45;;;0.57;;
52208;SDS011;38507;53.132;6.394;2023-08-31T10:03:13;1.75;;;0.60;;
52208;SDS011;38507;53.132;6.394;2023-08-31T10:05:40;5.63;;;0.80;;
52208;SDS011;38507;53.132;6.394;2023-08-31T10:08:10;2.30;;;0.63;;
52208;SDS011;38507;53.132;6.394;2023-08-31T10:10:39;6.00;;;0.75;;
52208;SDS011;38507;53.132;6.394;2023-08-31T10:13:05;4.97;;;0.70;;
52208;SDS011;38507;53.132;6.394;2023-08-31T10:15:31;4.88;;;0.60;;
52208;SDS011;38507;53.132;6.394;2023-08-31T10:18:05;1.88;;;0.43;;
52208;SDS011;38507;53.132;6.394;2023-08-31T10:20:32;0.85;;;0.50;;
52208;SDS011;38507;53.132;6.394;2023-08-31T10:23:02;2.20;;;0.60;;
52208;SDS011;38507;53.132;6.394;2023-08-31T10:28:18;4.03;;;0.65;;
52208;SDS011;38507;53.132;6.394;2023-08-31T10:33:32;4.72;;;0.60;;
52208;SDS011;38507;53.132;6.394;2023-08-31T10:36:16;4.05;;;0.60;;
52208;SDS011;38507;53.132;6.394;2023-08-31T10:38:47;1.30;;;0.35;;
52208;SDS011;38507;53.132;6.394;2023-08-31T10:41:25;3.80;;;0.57;;
52208;SDS011;38507;53.132;6.394;2023-08-31T10:43:57;2.63;;;0.60;;
52208;SDS011;38507;53.132;6.394;2023-08-31T10:48:58;2.63;;;0.50;;
52208;SDS011;38507;53.132;6.394;2023-08-31T10:51:25;0.95;;;0.40;;
52208;SDS011;38507;53.132;6.394;2023-08-31T10:53:51;1.60;;;0.50;;
52208;SDS011;38507;53.132;6.394;2023-08-31T10:56:18;2.60;;;0.52;;
52208;SDS011;38507;53.132;6.394;2023-08-31T10:58:57;5.10;;;0.95;;
52208;SDS011;38507;53.132;6.394;2023-08-31T11:04:19;3.80;;;0.88;;
52208;SDS011;38507;53.132;6.394;2023-08-31T11:06:45;1.92;;;0.47;;
52208;SDS011;38507;53.132;6.394;2023-08-31T11:09:20;2.75;;;0.90;;
52208;SDS011;38507;53.132;6.394;2023-08-31T11:11:46;2.05;;;0.50;;
52208;SDS011;38507;53.132;6.394;2023-08-31T11:14:13;2.03;;;0.60;;
52208;SDS011;38507;53.132;6.394;2023-08-31T11:16:39;3.60;;;0.60;;
52208;SDS011;38507;53.132;6.394;2023-08-31T11:19:05;4.63;;;0.80;;
52208;SDS011;38507;53.132;6.394;2023-08-31T11:21:30;3.20;;;0.68;;
52208;SDS011;38507;53.132;6.394;2023-08-31T11:23:57;6.35;;;0.88;;
52208;SDS011;38507;53.132;6.394;2023-08-31T11:26:26;8.05;;;0.98;;
52208;SDS011;38507;53.132;6.394;2023-08-31T11:28:55;3.72;;;0.50;;
52208;SDS011;38507;53.132;6.394;2023-08-31T11:31:24;4.22;;;0.75;;
52208;SDS011;38507;53.132;6.394;2023-08-31T11:33:50;2.03;;;0.60;;
52208;SDS011;38507;53.132;6.394;2023-08-31T11:36:16;3.58;;;0.52;;
52208;SDS011;38507;53.132;6.394;2023-08-31T11:38:47;3.70;;;0.60;;
52208;SDS011;38507;53.132;6.394;2023-08-31T11:41:14;4.43;;;0.70;;
52208;SDS011;38507;53.132;6.394;2023-08-31T11:43:39;3.33;;;0.60;;
52208;SDS011;38507;53.132;6.394;2023-08-31T11:46:06;2.30;;;0.40;;
52208;SDS011;38507;53.132;6.394;2023-08-31T11:48:32;1.30;;;0.50;;
52208;SDS011;38507;53.132;6.394;2023-08-31T11:50:58;1.42;;;0.40;;
52208;SDS011;38507;53.132;6.394;2023-08-31T11:53:24;2.58;;;0.40;;
52208;SDS011;38507;53.132;6.394;2023-08-31T11:55:52;2.22;;;0.60;;
52208;SDS011;38507;53.132;6.394;2023-08-31T11:58:19;6.45;;;1.10;;
52208;SDS011;38507;53.132;6.394;2023-08-31T12:00:45;5.07;;;0.80;;
52208;SDS011;38507;53.132;6.394;2023-08-31T12:03:19;5.43;;;0.88;;
52208;SDS011;38507;53.132;6.394;2023-08-31T12:05:45;5.70;;;0.60;;
52208;SDS011;38507;53.132;6.394;2023-08-31T12:08:13;3.65;;;0.57;;
52208;SDS011;38507;53.132;6.394;2023-08-31T12:10:41;1.35;;;0.45;;
52208;SDS011;38507;53.132;6.394;2023-08-31T12:13:10;1.20;;;0.40;;
52208;SDS011;38507;53.132;6.394;2023-08-31T12:15:37;1.85;;;0.50;;
52208;SDS011;38507;53.132;6.394;2023-08-31T12:18:10;2.75;;;0.50;;
52208;SDS011;38507;53.132;6.394;2023-08-31T12:20:46;3.60;;;0.75;;
52208;SDS011;38507;53.132;6.394;2023-08-31T12:23:13;2.80;;;0.52;;
52208;SDS011;38507;53.132;6.394;2023-08-31T12:25:48;1.58;;;0.55;;
52208;SDS011;38507;53.132;6.394;2023-08-31T12:28:16;5.75;;;0.70;;
52208;SDS011;38507;53.132;6.394;2023-08-31T12:30:45;4.10;;;0.90;;
52208;SDS011;38507;53.132;6.394;2023-08-31T12:33:18;2.78;;;0.50;;
52208;SDS011;38507;53.132;6.394;2023-08-31T12:35:45;4.10;;;0.70;;
52208;SDS011;38507;53.132;6.394;2023-08-31T12:38:11;3.00;;;1.33;;
52208;SDS011;38507;53.132;6.394;2023-08-31T12:40:37;4.63;;;0.77;;
52208;SDS011;38507;53.132;6.394;2023-08-31T12:43:04;4.32;;;0.80;;
52208;SDS011;38507;53.132;6.394;2023-08-31T12:45:30;3.35;;;0.90;;
52208;SDS011;38507;53.132;6.394;2023-08-31T12:47:56;4.15;;;0.88;;
52208;SDS011;38507;53.132;6.394;2023-08-31T12:50:22;3.70;;;0.70;;
52208;SDS011;38507;53.132;6.394;2023-08-31T12:52:48;4.65;;;0.70;;
52208;SDS011;38507;53.132;6.394;2023-08-31T12:55:14;7.22;;;1.08;;
52208;SDS011;38507;53.132;6.394;2023-08-31T12:57:40;6.45;;;0.75;;
52208;SDS011;38507;53.132;6.394;2023-08-31T13:00:07;4.88;;;0.90;;
52208;SDS011;38507;53.132;6.394;2023-08-31T13:02:37;4.72;;;1.17;;
52208;SDS011;38507;53.132;6.394;2023-08-31T13:05:03;3.65;;;0.70;;
52208;SDS011;38507;53.132;6.394;2023-08-31T13:07:30;4.80;;;1.40;;
52208;SDS011;38507;53.132;6.394;2023-08-31T13:09:57;4.75;;;1.20;;
52208;SDS011;38507;53.132;6.394;2023-08-31T13:12:25;4.90;;;0.75;;
52208;SDS011;38507;53.132;6.394;2023-08-31T13:14:50;6.07;;;1.02;;
52208;SDS011;38507;53.132;6.394;2023-08-31T13:17:16;5.07;;;0.88;;
52208;SDS011;38507;53.132;6.394;2023-08-31T13:19:42;6.47;;;1.13;;
52208;SDS011;38507;53.132;6.394;2023-08-31T13:22:07;4.75;;;1.00;;
52208;SDS011;38507;53.132;6.394;2023-08-31T13:24:33;4.55;;;0.90;;
52208;SDS011;38507;53.132;6.394;2023-08-31T13:26:59;5.63;;;1.42;;
52208;SDS011;38507;53.132;6.394;2023-08-31T13:29:24;5.82;;;1.13;;
52208;SDS011;38507;53.132;6.394;2023-08-31T13:31:50;5.15;;;0.82;;
52208;SDS011;38507;53.132;6.394;2023-08-31T13:34:15;6.45;;;0.98;;
52208;SDS011;38507;53.132;6.394;2023-08-31T13:36:43;5.97;;;0.95;;
52208;SDS011;38507;53.132;6.394;2023-08-31T13:39:09;4.78;;;0.90;;
52208;SDS011;38507;53.132;6.394;2023-08-31T13:41:35;2.80;;;0.57;;
52208;SDS011;38507;53.132;6.394;2023-08-31T13:44:00;5.80;;;1.13;;
52208;SDS011;38507;53.132;6.394;2023-08-31T13:46:26;4.45;;;0.85;;
52208;SDS011;38507;53.132;6.394;2023-08-31T13:48:51;3.78;;;0.80;;
52208;SDS011;38507;53.132;6.394;2023-08-31T13:51:17;7.55;;;0.90;;
52208;SDS011;38507;53.132;6.394;2023-08-31T13:53:43;6.20;;;0.88;;
52208;SDS011;38507;53.132;6.394;2023-08-31T13:56:08;5.13;;;0.88;;
52208;SDS011;38507;53.132;6.394;2023-08-31T13:58:34;3.22;;;0.73;;
52208;SDS011;38507;53.132;6.394;2023-08-31T14:01:03;4.07;;;0.93;;
52208;SDS011;38507;53.132;6.394;2023-08-31T14:03:28;8.45;;;1.00;;
52208;SDS011;38507;53.132;6.394;2023-08-31T14:05:54;6.95;;;1.15;;
52208;SDS011;38507;53.132;6.394;2023-08-31T14:08:20;5.97;;;0.90;;
52208;SDS011;38507;53.132;6.394;2023-08-31T14:10:45;8.77;;;1.23;;
52208;SDS011;38507;53.132;6.394;2023-08-31T14:13:11;6.85;;;1.63;;
52208;SDS011;38507;53.132;6.394;2023-08-31T14:15:37;7.13;;;0.90;;
52208;SDS011;38507;53.132;6.394;2023-08-31T14:18:09;4.55;;;0.93;;
52208;SDS011;38507;53.132;6.394;2023-08-31T14:20:34;3.72;;;0.80;;
52208;SDS011;38507;53.132;6.394;2023-08-31T14:23:00;2.80;;;0.68;;
52208;SDS011;38507;53.132;6.394;2023-08-31T14:25:26;3.55;;;0.80;;
52208;SDS011;38507;53.132;6.394;2023-08-31T14:27:51;1.88;;;0.60;;
52208;SDS011;38507;53.132;6.394;2023-08-31T14:30:17;5.00;;;0.60;;
52208;SDS011;38507;53.132;6.394;2023-08-31T14:32:43;3.35;;;0.73;;
52208;SDS011;38507;53.132;6.394;2023-08-31T14:35:08;4.57;;;0.80;;
52208;SDS011;38507;53.132;6.394;2023-08-31T14:37:35;5.43;;;0.90;;
52208;SDS011;38507;53.132;6.394;2023-08-31T14:40:00;6.75;;;1.25;;
52208;SDS011;38507;53.132;6.394;2023-08-31T14:42:26;4.38;;;0.80;;
52208;SDS011;38507;53.132;6.394;2023-08-31T14:44:52;5.47;;;0.57;;
52208;SDS011;38507;53.132;6.394;2023-08-31T14:47:18;2.97;;;1.02;;
52208;SDS011;38507;53.132;6.394;2023-08-31T14:49:43;4.72;;;0.85;;
52208;SDS011;38507;53.132;6.394;2023-08-31T14:52:09;3.92;;;0.98;;
52208;SDS011;38507;53.132;6.394;2023-08-31T14:54:34;4.78;;;0.90;;
52208;SDS011;38507;53.132;6.394;2023-08-31T14:57:00;2.85;;;0.60;;
52208;SDS011;38507;53.132;6.394;2023-08-31T14:59:28;5.38;;;0.90;;
52208;SDS011;38507;53.132;6.394;2023-08-31T15:01:54;4.65;;;1.30;;
52208;SDS011;38507;53.132;6.394;2023-08-31T15:04:19;6.47;;;0.88;;
52208;SDS011;38507;53.132;6.394;2023-08-31T15:06:45;3.42;;;0.70;;
52208;SDS011;38507;53.132;6.394;2023-08-31T15:09:11;6.75;;;0.90;;
52208;SDS011;38507;53.132;6.394;2023-08-31T15:11:36;5.22;;;0.80;;